createdAt,value
2019-01-25T00:01:12.990Z,31.30
2019-01-25T00:03:46.675Z,30.35
2019-01-25T00:06:22.499Z,28.75
2019-01-25T00:08:55.624Z,28.10
2019-01-25T00:11:29.280Z,28.05
2019-01-25T00:14:02.011Z,31.80
2019-01-25T00:16:35.025Z,29.18
2019-01-25T00:19:08.431Z,30.72
2019-01-25T00:21:41.817Z,30.23
2019-01-25T00:24:15.095Z,31.10
2019-01-25T00:26:47.713Z,34.48
2019-01-25T00:29:20.837Z,31.35
2019-01-25T00:31:54.148Z,27.10
2019-01-25T00:34:27.151Z,32.03
2019-01-25T00:37:00.442Z,30.50
2019-01-25T00:39:33.831Z,31.20
2019-01-25T00:42:07.008Z,31.15
2019-01-25T00:44:40.107Z,31.35
2019-01-25T00:47:13.118Z,28.23
2019-01-25T00:49:46.008Z,29.12
2019-01-25T00:52:18.608Z,29.90
2019-01-25T00:54:52.478Z,29.18
2019-01-25T00:57:26.608Z,31.82
2019-01-25T00:59:59.591Z,29.12
2019-01-25T01:02:32.650Z,31.95
2019-01-25T01:05:06.505Z,30.15
2019-01-25T01:07:39.579Z,31.37
2019-01-25T01:10:14.262Z,31.23
2019-01-25T01:12:48.551Z,32.78
2019-01-25T01:15:22.319Z,31.97
2019-01-25T01:17:55.821Z,28.95
2019-01-25T01:20:28.820Z,30.05
2019-01-25T01:23:01.069Z,30.15
2019-01-25T01:25:34.574Z,31.52
2019-01-25T01:28:07.659Z,28.45
2019-01-25T01:30:41.511Z,29.72
2019-01-25T01:33:14.893Z,29.07
2019-01-25T01:35:48.652Z,32.17
2019-01-25T01:38:21.644Z,29.85
2019-01-25T01:40:57.521Z,30.55
2019-01-25T01:43:31.013Z,29.15
2019-01-25T01:46:04.408Z,30.57
2019-01-25T01:48:37.993Z,32.10
2019-01-25T01:51:10.691Z,32.75
2019-01-25T01:53:43.408Z,29.15
2019-01-25T01:56:15.970Z,30.35
2019-01-25T01:58:49.150Z,28.10
2019-01-25T02:01:22.990Z,28.52
2019-01-25T02:03:56.025Z,30.40
2019-01-25T02:06:29.930Z,30.20
2019-01-25T02:09:04.567Z,33.92
2019-01-25T02:11:40.295Z,28.92
2019-01-25T02:14:13.502Z,31.30
2019-01-25T02:16:46.824Z,31.12
2019-01-25T02:19:19.986Z,32.53
2019-01-25T02:21:53.705Z,29.55
2019-01-25T02:24:26.708Z,32.13
2019-01-25T02:27:00.052Z,29.87
2019-01-25T02:29:33.098Z,31.62
2019-01-25T02:32:06.288Z,30.05
2019-01-25T02:34:39.381Z,31.10
2019-01-25T02:37:11.968Z,29.80
2019-01-25T02:39:45.268Z,28.50
2019-01-25T02:42:19.516Z,28.90
2019-01-25T02:44:52.640Z,31.70
2019-01-25T02:47:25.845Z,31.95
2019-01-25T02:49:59.655Z,30.50
2019-01-25T02:52:32.931Z,29.25
2019-01-25T02:55:08.140Z,28.42
2019-01-25T02:57:41.171Z,28.20
2019-01-25T03:00:19.368Z,30.27
2019-01-25T03:02:52.762Z,30.17
2019-01-25T03:05:25.541Z,29.75
2019-01-25T03:07:59.367Z,29.48
2019-01-25T03:10:31.975Z,31.97
2019-01-25T03:13:04.154Z,31.48
2019-01-25T03:15:37.546Z,31.15
2019-01-25T03:18:10.504Z,30.52
2019-01-25T03:20:43.509Z,29.35
2019-01-25T03:23:16.887Z,27.65
2019-01-25T03:25:50.181Z,27.75
2019-01-25T03:28:23.151Z,32.15
2019-01-25T03:30:57.458Z,31.35
2019-01-25T03:33:30.804Z,30.10
2019-01-25T03:36:04.139Z,32.95
2019-01-25T03:38:37.322Z,28.62
2019-01-25T03:41:10.406Z,30.15
2019-01-25T03:43:43.714Z,30.72
2019-01-25T03:46:16.296Z,30.68
2019-01-25T03:48:49.314Z,32.80
2019-01-25T03:51:22.611Z,29.60
2019-01-25T03:53:55.216Z,31.77
2019-01-25T03:56:29.104Z,29.82
2019-01-25T03:59:02.949Z,30.35
2019-01-25T04:01:36.505Z,29.07
2019-01-25T04:04:09.990Z,29.30
2019-01-25T04:06:43.400Z,27.48
2019-01-25T04:09:17.202Z,28.25
2019-01-25T04:11:50.211Z,29.60
2019-01-25T04:14:23.971Z,29.57
2019-01-25T04:16:57.467Z,30.40
2019-01-25T04:19:30.887Z,30.90
2019-01-25T04:22:03.476Z,30.00
2019-01-25T04:24:36.803Z,30.85
2019-01-25T04:27:09.332Z,29.82
2019-01-25T04:29:42.502Z,32.58
2019-01-25T04:32:15.860Z,28.15
2019-01-25T04:34:48.942Z,29.35
2019-01-25T04:37:22.224Z,27.87
2019-01-25T04:39:55.683Z,28.98
2019-01-25T04:42:29.565Z,32.23
2019-01-25T04:45:02.451Z,29.45
2019-01-25T04:47:34.832Z,29.25
2019-01-25T04:50:11.979Z,29.60
2019-01-25T04:52:45.308Z,27.60
2019-01-25T04:55:26.355Z,30.95
2019-01-25T04:58:28.411Z,32.15
2019-01-25T05:01:08.658Z,30.30
2019-01-25T05:03:41.687Z,29.98
2019-01-25T05:06:17.245Z,28.73
2019-01-25T05:08:50.893Z,29.87
2019-01-25T05:11:23.783Z,30.05
2019-01-25T05:13:58.679Z,28.90
2019-01-25T05:16:31.817Z,27.98
2019-01-25T05:19:05.219Z,31.27
2019-01-25T05:21:38.678Z,30.85
2019-01-25T05:24:12.424Z,30.48
2019-01-25T05:26:45.472Z,28.85
2019-01-25T05:29:22.994Z,33.28
2019-01-25T05:31:56.393Z,32.28
2019-01-25T05:34:29.832Z,30.80
2019-01-25T05:37:04.945Z,30.17
2019-01-25T05:39:37.821Z,30.57
2019-01-25T05:42:11.411Z,29.12
2019-01-25T05:44:43.558Z,30.80
2019-01-25T05:47:17.062Z,30.30
2019-01-25T05:49:50.371Z,28.85
2019-01-25T05:52:23.460Z,30.17
2019-01-25T05:54:56.023Z,30.68
2019-01-25T05:57:28.995Z,30.97
2019-01-25T06:00:06.863Z,31.42
2019-01-25T06:02:40.509Z,28.80
2019-01-25T06:05:14.036Z,30.10
2019-01-25T06:07:48.395Z,29.75
2019-01-25T06:10:21.422Z,29.35
2019-01-25T06:12:55.983Z,30.48
2019-01-25T06:15:28.998Z,28.50
2019-01-25T06:18:02.497Z,30.92
2019-01-25T06:20:35.437Z,28.67
2019-01-25T06:23:09.234Z,29.02
2019-01-25T06:25:42.680Z,28.92
2019-01-25T06:28:16.134Z,29.72
2019-01-25T06:30:50.271Z,30.65
2019-01-25T06:33:23.353Z,30.45
2019-01-25T06:35:56.750Z,31.12
2019-01-25T06:38:30.522Z,30.57
2019-01-25T06:41:04.873Z,30.02
2019-01-25T06:43:38.786Z,30.70
2019-01-25T06:46:11.831Z,28.25
2019-01-25T06:48:44.367Z,31.07
2019-01-25T06:51:17.882Z,30.95
2019-01-25T06:53:51.662Z,30.77
2019-01-25T06:56:25.371Z,27.62
2019-01-25T06:59:12.596Z,27.75
2019-01-25T07:02:05.122Z,29.05
2019-01-25T07:04:37.771Z,29.87
2019-01-25T07:07:34.258Z,30.72
2019-01-25T07:10:12.108Z,30.48
2019-01-25T07:12:45.881Z,28.60
2019-01-25T07:15:22.173Z,31.15
2019-01-25T07:17:55.620Z,28.87
2019-01-25T07:20:29.134Z,32.63
2019-01-25T07:23:02.393Z,28.20
2019-01-25T07:25:35.714Z,31.07
2019-01-25T07:28:08.393Z,33.35
2019-01-25T07:30:41.579Z,27.85
2019-01-25T07:33:14.680Z,27.48
2019-01-25T07:35:47.377Z,30.43
2019-01-25T07:38:20.951Z,29.60
2019-01-25T07:40:54.724Z,28.07
2019-01-25T07:43:28.001Z,28.73
2019-01-25T07:46:00.907Z,31.75
2019-01-25T07:48:34.366Z,28.38
2019-01-25T07:51:07.704Z,27.95
2019-01-25T07:53:41.173Z,29.23
2019-01-25T07:56:14.112Z,27.13
2019-01-25T07:58:49.583Z,27.50
2019-01-25T08:01:22.248Z,26.82
2019-01-25T08:03:55.553Z,29.80
2019-01-25T08:06:29.944Z,29.65
2019-01-25T08:09:04.898Z,26.80
2019-01-25T08:11:38.605Z,31.00
2019-01-25T08:14:12.863Z,28.07
2019-01-25T08:16:46.132Z,26.90
2019-01-25T08:19:19.519Z,29.52
2019-01-25T08:21:53.006Z,26.02
2019-01-25T08:24:25.769Z,28.12
2019-01-25T08:26:59.103Z,25.32
2019-01-25T08:29:31.974Z,29.42
2019-01-25T08:32:05.367Z,26.80
2019-01-25T08:34:38.861Z,29.70
2019-01-25T08:37:11.846Z,28.45
2019-01-25T08:39:45.029Z,28.12
2019-01-25T08:42:17.728Z,27.58
2019-01-25T08:44:50.513Z,28.83
2019-01-25T08:47:24.093Z,27.87
2019-01-25T08:49:58.017Z,27.58
2019-01-25T08:52:31.414Z,26.57
2019-01-25T08:55:05.242Z,26.80
2019-01-25T08:57:38.328Z,27.55
2019-01-25T09:00:16.729Z,27.80
2019-01-25T09:02:49.827Z,25.97
2019-01-25T09:05:23.347Z,25.05
2019-01-25T09:07:56.334Z,28.15
2019-01-25T09:10:29.821Z,27.32
2019-01-25T09:13:03.130Z,24.18
2019-01-25T09:15:36.767Z,26.60
2019-01-25T09:18:09.918Z,24.55
2019-01-25T09:20:42.558Z,25.43
2019-01-25T09:23:15.951Z,28.83
2019-01-25T09:25:50.239Z,24.12
2019-01-25T09:28:23.254Z,25.80
2019-01-25T09:30:57.182Z,27.40
2019-01-25T09:33:29.865Z,21.65
2019-01-25T09:36:02.845Z,24.80
2019-01-25T09:38:36.246Z,24.95
2019-01-25T09:41:09.345Z,24.67
2019-01-25T09:43:42.421Z,25.77
2019-01-25T09:46:15.401Z,25.35
2019-01-25T09:48:49.027Z,22.35
2019-01-25T09:51:22.093Z,22.02
2019-01-25T09:53:54.982Z,24.72
2019-01-25T09:56:27.985Z,25.10
2019-01-25T09:59:00.961Z,22.48
2019-01-25T10:01:34.070Z,21.27
2019-01-25T10:04:07.678Z,23.30
2019-01-25T10:06:40.632Z,24.37
2019-01-25T10:09:14.375Z,25.52
2019-01-25T10:11:47.784Z,22.55
2019-01-25T10:14:20.637Z,24.85
2019-01-25T10:16:53.814Z,26.75
2019-01-25T10:19:26.500Z,22.55
2019-01-25T10:22:00.009Z,27.45
2019-01-25T10:24:33.107Z,27.40
2019-01-25T10:27:06.124Z,26.50
2019-01-25T10:29:39.497Z,24.05
2019-01-25T10:32:13.273Z,24.67
2019-01-25T10:34:46.787Z,26.37
2019-01-25T10:37:20.352Z,26.90
2019-01-25T10:39:53.262Z,26.93
2019-01-25T10:42:26.417Z,27.40
2019-01-25T10:45:04.278Z,28.20
2019-01-25T10:47:35.234Z,26.70
2019-01-25T10:50:08.438Z,26.42
2019-01-25T10:52:41.898Z,26.70
2019-01-25T10:55:15.889Z,27.80
2019-01-25T10:57:48.490Z,28.47
2019-01-25T11:00:21.472Z,26.17
2019-01-25T11:02:58.413Z,26.80
2019-01-25T11:05:29.029Z,27.30
2019-01-25T11:08:01.879Z,25.70
2019-01-25T11:10:34.858Z,28.85
2019-01-25T11:13:08.357Z,25.65
2019-01-25T11:15:41.546Z,23.45
2019-01-25T11:18:14.647Z,25.32
2019-01-25T11:20:48.152Z,24.67
2019-01-25T11:23:20.812Z,23.40
2019-01-25T11:25:55.386Z,23.05
2019-01-25T11:28:28.852Z,26.82
2019-01-25T11:31:01.934Z,26.02
2019-01-25T11:33:34.915Z,26.95
2019-01-25T11:36:08.453Z,24.70
2019-01-25T11:38:42.322Z,27.27
2019-01-25T11:41:16.127Z,30.00
2019-01-25T11:43:49.953Z,24.45
2019-01-25T11:46:23.365Z,25.30
2019-01-25T11:48:56.410Z,24.05
2019-01-25T11:51:29.689Z,25.62
2019-01-25T11:54:02.993Z,28.70
2019-01-25T11:56:35.613Z,26.68
2019-01-25T11:59:09.173Z,26.55
2019-01-25T12:01:42.370Z,26.55
2019-01-25T12:04:15.695Z,28.47
2019-01-25T12:06:49.185Z,26.45
2019-01-25T12:09:22.242Z,27.48
2019-01-25T12:11:56.016Z,24.47
2019-01-25T12:14:28.719Z,27.37
2019-01-25T12:17:01.641Z,26.33
2019-01-25T12:19:34.289Z,25.35
2019-01-25T12:22:07.316Z,27.27
2019-01-25T12:24:40.926Z,27.15
2019-01-25T12:27:13.610Z,26.27
2019-01-25T12:29:46.497Z,24.75
2019-01-25T12:32:19.985Z,23.85
2019-01-25T12:34:53.472Z,25.88
2019-01-25T12:37:26.602Z,22.35
2019-01-25T12:40:00.506Z,23.30
2019-01-25T12:42:34.002Z,23.05
2019-01-25T12:45:09.689Z,22.52
2019-01-25T12:47:44.160Z,19.17
2019-01-25T12:50:20.374Z,20.80
2019-01-25T12:52:53.510Z,18.77
2019-01-25T12:55:27.083Z,17.23
2019-01-25T12:58:01.031Z,18.82
2019-01-25T13:00:40.039Z,18.75
2019-01-25T13:03:13.962Z,19.20
2019-01-25T13:05:47.191Z,19.25
2019-01-25T13:08:21.050Z,18.55
2019-01-25T13:10:54.555Z,17.17
2019-01-25T13:13:31.740Z,17.73
2019-01-25T13:16:02.984Z,18.57
2019-01-25T13:18:36.840Z,20.02
2019-01-25T13:21:09.475Z,17.80
2019-01-25T13:23:43.134Z,19.02
2019-01-25T13:26:16.484Z,18.98
2019-01-25T13:28:49.877Z,18.98
2019-01-25T13:31:22.952Z,19.10
2019-01-25T13:33:55.942Z,19.32
2019-01-25T13:36:28.756Z,18.90
2019-01-25T13:39:02.148Z,19.77
2019-01-25T13:41:36.983Z,21.25
2019-01-25T13:44:10.648Z,23.70
2019-01-25T13:46:43.803Z,19.60
2019-01-25T13:49:17.833Z,21.00
2019-01-25T13:51:50.459Z,18.32
2019-01-25T13:54:23.561Z,21.85
2019-01-25T13:56:57.419Z,22.55
2019-01-25T13:59:30.950Z,22.22
2019-01-25T14:02:03.873Z,22.40
2019-01-25T14:04:36.769Z,21.30
2019-01-25T14:07:09.940Z,24.55
2019-01-25T14:09:43.092Z,23.55
2019-01-25T14:12:17.013Z,23.73
2019-01-25T14:14:50.196Z,25.52
2019-01-25T14:17:23.813Z,24.60
2019-01-25T14:19:57.071Z,23.67
2019-01-25T14:22:30.449Z,24.50
2019-01-25T14:25:04.531Z,26.20
2019-01-25T14:27:37.708Z,25.77
2019-01-25T14:30:19.768Z,28.42
2019-01-25T14:32:53.623Z,27.50
2019-01-25T14:35:27.222Z,29.32
2019-01-25T14:38:00.803Z,31.70
2019-01-25T14:40:34.228Z,26.52
2019-01-25T14:43:07.475Z,27.00
2019-01-25T14:45:40.589Z,28.80
2019-01-25T14:48:14.864Z,27.13
2019-01-25T14:50:48.441Z,28.90
2019-01-25T14:53:22.245Z,29.00
2019-01-25T14:55:55.485Z,31.57
2019-01-25T14:58:28.939Z,29.90
2019-01-25T15:01:03.880Z,32.73
2019-01-25T15:03:38.483Z,31.35
2019-01-25T15:06:11.544Z,29.35
2019-01-25T15:08:44.776Z,31.42
2019-01-25T15:11:17.082Z,31.15
2019-01-25T15:13:50.102Z,32.35
2019-01-25T15:16:23.088Z,33.15
2019-01-25T15:18:56.463Z,32.38
2019-01-25T15:21:29.072Z,31.68
2019-01-25T15:24:03.102Z,31.60
2019-01-25T15:26:36.473Z,35.13
2019-01-25T15:29:10.252Z,36.42
2019-01-25T15:31:43.073Z,38.83
2019-01-25T15:34:16.149Z,33.67
2019-01-25T15:36:49.765Z,32.93
2019-01-25T15:39:23.703Z,32.60
2019-01-25T15:41:57.614Z,32.17
2019-01-25T15:44:31.454Z,32.38
2019-01-25T15:47:04.979Z,36.08
2019-01-25T15:49:38.277Z,35.85
2019-01-25T15:52:11.661Z,34.53
2019-01-25T15:54:45.278Z,37.25
2019-01-25T15:57:18.970Z,35.05
2019-01-25T15:59:51.760Z,35.50
2019-01-25T16:02:24.870Z,33.70
2019-01-25T16:04:58.893Z,34.50
2019-01-25T16:07:32.006Z,33.75
2019-01-25T16:10:06.903Z,32.48
2019-01-25T22:00:55.226Z,26.27
2019-01-25T22:03:27.896Z,25.08
2019-01-25T22:06:00.953Z,24.67
2019-01-25T22:08:35.123Z,23.38
2019-01-25T22:11:09.088Z,24.95
2019-01-25T22:13:41.813Z,21.85
2019-01-25T22:16:14.927Z,25.80
2019-01-25T22:18:48.357Z,28.85
2019-01-25T22:21:21.698Z,25.68
2019-01-25T22:23:55.588Z,26.07
2019-01-25T22:26:28.308Z,28.70
2019-01-25T22:29:02.282Z,23.80
2019-01-25T22:31:35.845Z,22.10
2019-01-25T22:34:08.495Z,23.75
2019-01-25T22:36:42.592Z,22.13
2019-01-25T22:39:16.079Z,22.65
2019-01-25T22:41:49.359Z,21.48
2019-01-25T22:44:23.266Z,21.10
2019-01-25T22:46:57.115Z,22.90
2019-01-25T22:49:29.690Z,22.40
2019-01-25T22:52:02.673Z,21.68
2019-01-25T22:54:36.186Z,21.30
2019-01-25T22:57:09.258Z,20.77
2019-01-25T22:59:42.589Z,20.35
2019-01-25T23:02:15.946Z,18.67
2019-01-25T23:05:33.400Z,19.67
2019-01-25T23:08:06.615Z,20.10
2019-01-25T23:10:41.673Z,19.50
2019-01-25T23:13:15.051Z,19.60
2019-01-25T23:15:48.500Z,20.12
2019-01-25T23:18:22.050Z,18.90
2019-01-25T23:20:55.818Z,19.07
2019-01-25T23:23:29.018Z,22.00
2019-01-25T23:26:02.199Z,20.25
2019-01-25T23:28:34.847Z,21.65
2019-01-25T23:31:08.062Z,20.65
2019-01-25T23:33:41.143Z,19.07
2019-01-25T23:36:14.057Z,20.43
2019-01-25T23:38:48.319Z,20.75
2019-01-25T23:41:23.527Z,21.87
2019-01-25T23:43:57.770Z,19.07
2019-01-25T23:46:33.754Z,19.10
2019-01-25T23:49:06.421Z,18.02
2019-01-25T23:51:40.050Z,17.37
2019-01-25T23:54:14.244Z,16.40
2019-01-25T23:56:47.587Z,18.45
2019-01-25T23:59:20.662Z,16.20
